createdAt,value
2023-04-18T00:01:12.487Z,101135.98
2023-04-18T00:06:14.987Z,101140.49
2023-04-18T00:11:17.464Z,101136.18
2023-04-18T00:16:20.018Z,101131.51
2023-04-18T00:21:22.718Z,101134.98
2023-04-18T00:26:25.790Z,101137.27
2023-04-18T00:31:28.399Z,101134.32
2023-04-18T00:36:31.076Z,101134.85
2023-04-18T00:41:33.664Z,101134.31
2023-04-18T00:46:36.216Z,101139.53
2023-04-18T00:51:39.580Z,101134.53
2023-04-18T00:56:42.491Z,101131.43
2023-04-18T01:01:45.301Z,101133.89
2023-04-18T01:06:47.937Z,101140.65
2023-04-18T01:11:50.487Z,101141.54
2023-04-18T01:16:53.239Z,101139.98
2023-04-18T01:21:55.779Z,101136.36
2023-04-18T01:27:03.131Z,101137.05
2023-04-18T01:32:06.418Z,101138.08
2023-04-18T01:37:08.994Z,101138.24
2023-04-18T01:42:11.553Z,101141.33
2023-04-18T01:47:14.090Z,101145.63
2023-04-18T01:52:17.383Z,101146.30
2023-04-18T01:57:19.962Z,101146.64
2023-04-18T02:02:22.852Z,101145.76
2023-04-18T02:07:25.670Z,101149.89
2023-04-18T02:12:28.139Z,101144.14
2023-04-18T02:17:30.863Z,101148.80
2023-04-18T02:22:33.585Z,101148.27
2023-04-18T02:27:36.726Z,101145.83
2023-04-18T02:32:39.323Z,101146.69
2023-04-18T02:37:41.931Z,101142.88
2023-04-18T02:42:44.788Z,101140.11
2023-04-18T02:47:55.203Z,101136.34
2023-04-18T02:52:58.392Z,101137.56
2023-04-18T02:58:00.965Z,101138.45
2023-04-18T03:03:03.850Z,101139.14
2023-04-18T03:08:06.561Z,101137.59
2023-04-18T03:13:09.071Z,101135.69
2023-04-18T03:18:12.449Z,101140.20
2023-04-18T03:23:14.986Z,101144.88
2023-04-18T03:28:17.543Z,101139.52
2023-04-18T03:33:20.088Z,101140.91
2023-04-18T03:38:22.670Z,101143.33
2023-04-18T03:43:25.357Z,101145.61
2023-04-18T03:48:29.003Z,101144.92
2023-04-18T03:53:31.694Z,101146.68
2023-04-18T03:58:34.259Z,101149.30
2023-04-18T04:03:37.158Z,101154.48
2023-04-18T04:08:39.833Z,101153.27
2023-04-18T04:13:42.374Z,101157.23
2023-04-18T04:18:45.111Z,101159.27
2023-04-18T04:23:48.000Z,101157.34
2023-04-18T04:28:51.589Z,101165.60
2023-04-18T04:33:54.148Z,101161.88
2023-04-18T04:38:56.863Z,101165.05
2023-04-18T04:44:01.841Z,101172.84
2023-04-18T04:49:04.479Z,101182.86
2023-04-18T04:54:07.109Z,101184.04
2023-04-18T04:59:09.712Z,101190.63
2023-04-18T05:04:12.891Z,101193.63
2023-04-18T05:09:15.789Z,101196.00
2023-04-18T05:14:18.706Z,101195.72
2023-04-18T05:19:21.280Z,101195.89
2023-04-18T05:24:23.883Z,101202.72
2023-04-18T05:29:26.487Z,101202.52
2023-04-18T05:34:29.144Z,101199.26
2023-04-18T05:39:32.327Z,101198.52
2023-04-18T05:44:34.918Z,101197.85
2023-04-18T05:49:37.469Z,101205.42
2023-04-18T05:54:40.152Z,101205.11
2023-04-18T05:59:42.894Z,101204.35
2023-04-18T06:04:46.187Z,101204.59
2023-04-18T06:09:49.745Z,101202.80
2023-04-18T06:14:52.365Z,101201.48
2023-04-18T06:19:54.856Z,101198.62
2023-04-18T06:24:57.497Z,101196.95
2023-04-18T06:30:00.028Z,101201.59
2023-04-18T06:35:02.706Z,101198.63
2023-04-18T06:40:05.918Z,101202.15
2023-04-18T06:45:10.722Z,101199.73
2023-04-18T06:50:14.039Z,101200.15
2023-04-18T06:55:16.603Z,101205.30
2023-04-18T07:00:19.424Z,101212.64
2023-04-18T07:05:22.054Z,101218.64
2023-04-18T07:10:24.661Z,101221.14
2023-04-18T07:15:27.198Z,101219.10
2023-04-18T07:20:29.971Z,101214.91
2023-04-18T07:25:32.556Z,101214.61
2023-04-18T07:30:35.093Z,101216.14
2023-04-18T07:35:37.699Z,101218.37
2023-04-18T07:40:40.312Z,101211.73
2023-04-18T07:45:43.287Z,101215.02
2023-04-18T07:50:45.894Z,101216.91
2023-04-18T07:55:48.981Z,101219.46
2023-04-18T08:00:51.586Z,101215.14
2023-04-18T08:05:54.089Z,101214.88
2023-04-18T08:10:56.661Z,101219.80
2023-04-18T08:16:00.114Z,101218.56
2023-04-18T08:21:02.867Z,101219.73
2023-04-18T08:26:05.424Z,101216.46
2023-04-18T08:31:11.967Z,101213.95
2023-04-18T08:36:14.531Z,101214.31
2023-04-18T08:41:21.533Z,101218.25
2023-04-18T08:46:24.153Z,101211.27
2023-04-18T08:51:30.630Z,101217.77
2023-04-18T08:56:33.167Z,101208.83
2023-04-18T09:02:06.395Z,101206.16
2023-04-18T09:07:10.851Z,101202.56
2023-04-18T09:12:32.687Z,101198.17
2023-04-18T09:17:45.492Z,101193.47
2023-04-18T09:22:51.970Z,101190.81
2023-04-18T09:27:57.230Z,101182.45
2023-04-18T09:33:01.347Z,101190.13
2023-04-18T09:38:04.848Z,101183.69
2023-04-18T09:43:20.457Z,101186.42
2023-04-18T09:48:23.031Z,101182.36
2023-04-18T09:53:26.623Z,101181.39
2023-04-18T09:58:32.866Z,101182.17
2023-04-18T10:03:44.319Z,101179.36
2023-04-18T10:08:49.027Z,101174.88
2023-04-18T10:13:57.416Z,101172.57
2023-04-18T10:19:29.496Z,101162.92
2023-04-18T10:24:55.972Z,101162.38
2023-04-18T10:29:58.603Z,101154.47
2023-04-18T10:35:01.781Z,101154.95
2023-04-18T10:40:07.315Z,101150.48
2023-04-18T10:45:26.992Z,101144.51
2023-04-18T10:50:29.713Z,101144.52
2023-04-18T10:55:32.299Z,101142.56
2023-04-18T11:00:35.267Z,101145.02
2023-04-18T11:05:37.970Z,101144.14
2023-04-18T11:10:41.116Z,101140.84
2023-04-18T11:15:43.710Z,101136.39
2023-04-18T11:20:51.188Z,101131.60
2023-04-18T11:25:56.398Z,101121.57
2023-04-18T11:31:00.246Z,101117.11
2023-04-18T11:36:03.061Z,101113.01
2023-04-18T11:41:05.744Z,101104.73
2023-04-18T11:46:08.512Z,101102.44
2023-04-18T11:51:35.565Z,101100.25
2023-04-18T11:56:48.582Z,101100.38
2023-04-18T12:02:08.851Z,101101.74
2023-04-18T12:07:33.547Z,101097.66
2023-04-18T12:12:36.548Z,101094.23
2023-04-18T12:17:40.156Z,101089.03
2023-04-18T12:22:45.650Z,101083.16
2023-04-18T12:27:49.858Z,101086.84
2023-04-18T12:32:59.916Z,101085.98
2023-04-18T12:38:03.221Z,101076.13
2023-04-18T12:43:05.901Z,101076.74
2023-04-18T12:48:08.733Z,101074.08
2023-04-18T12:53:11.309Z,101069.89
2023-04-18T12:58:18.429Z,101068.19
2023-04-18T13:03:21.623Z,101058.13
2023-04-18T13:08:24.245Z,101044.92
2023-04-18T13:13:26.766Z,101040.55
2023-04-18T13:18:29.274Z,101044.62
2023-04-18T13:23:31.886Z,101044.41
2023-04-18T13:28:34.486Z,101037.39
2023-04-18T13:33:37.088Z,101033.13
2023-04-18T13:38:39.656Z,101035.33
2023-04-18T13:43:42.278Z,101032.96
2023-04-18T13:48:45.313Z,101033.42
2023-04-18T13:53:47.862Z,101034.16
2023-04-18T13:58:51.044Z,101031.20
2023-04-18T14:03:54.768Z,101031.89
2023-04-18T14:08:58.547Z,101029.76
2023-04-18T14:14:01.975Z,101027.15
2023-04-18T14:19:04.663Z,101026.43
2023-04-18T14:24:08.148Z,101022.61
2023-04-18T14:29:11.224Z,101025.98
2023-04-18T14:34:13.864Z,101026.27
2023-04-18T14:39:16.602Z,101022.89
2023-04-18T14:44:19.211Z,101029.38
2023-04-18T14:49:22.114Z,101031.22
2023-04-18T14:54:24.784Z,101026.82
2023-04-18T14:59:28.745Z,101030.64
2023-04-18T15:04:31.434Z,101025.73
2023-04-18T15:09:37.737Z,101028.40
2023-04-18T15:14:40.823Z,101027.08
2023-04-18T15:19:43.400Z,101027.70
2023-04-18T15:24:47.413Z,101025.91
2023-04-18T15:29:49.976Z,101027.77
2023-04-18T15:34:52.578Z,101025.35
2023-04-18T15:39:55.299Z,101023.04
2023-04-18T15:44:58.068Z,101022.73
2023-04-18T15:50:00.957Z,101018.88
2023-04-18T15:55:05.124Z,101021.14
2023-04-18T16:00:16.100Z,101023.56
2023-04-18T16:05:18.994Z,101019.33
2023-04-18T16:10:21.939Z,101021.80
2023-04-18T16:15:24.538Z,101012.57
2023-04-18T16:20:27.928Z,101007.48
2023-04-18T16:25:30.686Z,101003.14
2023-04-18T16:30:33.238Z,101002.55
2023-04-18T16:35:35.780Z,101001.49
2023-04-18T16:40:38.608Z,100993.58
2023-04-18T16:45:41.404Z,100993.74
2023-04-18T16:50:47.011Z,100991.66
2023-04-18T16:55:50.412Z,100993.48
2023-04-18T17:00:53.214Z,100994.79
2023-04-18T17:05:56.015Z,100995.98
2023-04-18T17:10:59.639Z,100989.30
2023-04-18T17:16:02.417Z,100994.55
2023-04-18T17:21:05.011Z,100997.31
2023-04-18T17:26:08.946Z,100996.51
2023-04-18T17:31:14.794Z,100995.02
2023-04-18T17:36:17.615Z,100998.55
2023-04-18T17:41:24.062Z,100999.23
2023-04-18T17:46:26.866Z,101003.92
2023-04-18T17:51:29.781Z,101004.65
2023-04-18T17:56:32.478Z,101010.27
2023-04-18T18:01:37.741Z,101014.09
2023-04-18T18:06:42.215Z,101020.38
2023-04-18T18:11:44.865Z,101021.77
2023-04-18T18:16:47.429Z,101019.31
2023-04-18T18:21:50.545Z,101021.85
2023-04-18T18:26:53.323Z,101017.45
2023-04-18T18:31:56.350Z,101014.84
2023-04-18T18:36:58.981Z,101017.27
2023-04-18T18:42:02.419Z,101010.98
2023-04-18T18:47:05.791Z,101005.75
2023-04-18T18:52:08.317Z,101001.17
2023-04-18T18:57:12.086Z,100996.97
2023-04-18T19:02:23.961Z,100998.14
2023-04-18T19:07:28.875Z,100992.83
2023-04-18T19:12:32.611Z,100995.27
2023-04-18T19:17:35.769Z,100986.52
2023-04-18T19:22:39.136Z,100979.82
2023-04-18T19:27:42.413Z,100978.38
2023-04-18T19:32:45.835Z,100979.58
2023-04-18T19:37:48.648Z,100972.28
2023-04-18T19:42:51.255Z,100967.64
2023-04-18T19:47:53.915Z,100959.69
2023-04-18T19:52:56.559Z,100956.84
2023-04-18T19:58:00.024Z,100954.29
2023-04-18T20:03:02.898Z,100950.17
2023-04-18T20:08:06.023Z,100946.11
2023-04-18T20:13:08.761Z,100942.06
2023-04-18T20:18:11.686Z,100940.06
2023-04-18T20:23:14.513Z,100934.08
2023-04-18T20:28:17.188Z,100929.30
2023-04-18T20:33:19.823Z,100927.45
2023-04-18T20:38:26.176Z,100922.63
2023-04-18T20:43:28.914Z,100917.05
2023-04-18T20:48:31.468Z,100916.96
2023-04-18T20:53:34.108Z,100913.80
2023-04-18T20:58:36.684Z,100918.77
2023-04-18T21:03:39.321Z,100918.55
2023-04-18T21:08:42.067Z,100913.83
2023-04-18T21:13:44.654Z,100908.92
2023-04-18T21:18:47.196Z,100907.12
2023-04-18T21:23:49.755Z,100899.59
2023-04-18T21:28:57.841Z,100898.45
2023-04-18T21:34:02.759Z,100894.17
2023-04-18T21:39:05.541Z,100897.13
2023-04-18T21:44:08.152Z,100892.95
2023-04-18T21:49:10.738Z,100887.95
2023-04-18T21:54:13.779Z,100886.23
2023-04-18T21:59:19.504Z,100878.87
2023-04-18T22:04:26.126Z,100875.00
2023-04-18T22:09:29.669Z,100869.55
2023-04-18T22:14:32.319Z,100867.02
2023-04-18T22:19:35.619Z,100865.86
2023-04-18T22:24:38.198Z,100859.80
2023-04-18T22:29:40.919Z,100856.33
2023-04-18T22:34:44.735Z,100852.52
2023-04-18T22:39:47.294Z,100837.35
2023-04-18T22:44:49.892Z,100834.81
2023-04-18T22:49:56.435Z,100832.42
2023-04-18T22:54:58.943Z,100825.73
2023-04-18T23:00:01.552Z,100817.95
2023-04-18T23:05:05.812Z,100813.98
2023-04-18T23:10:09.195Z,100812.60
2023-04-18T23:15:11.981Z,100806.55
2023-04-18T23:20:14.675Z,100802.75
2023-04-18T23:25:17.586Z,100792.00
2023-04-18T23:30:20.168Z,100788.36
2023-04-18T23:35:22.666Z,100780.58
2023-04-18T23:40:25.364Z,100772.28
2023-04-18T23:45:31.040Z,100763.48
2023-04-18T23:50:35.432Z,100758.48
2023-04-18T23:55:37.986Z,100745.74
